sensor_id;sensor_type;location;lat;lon;timestamp;temperature;humidity
25046;DHT22;13044;49.304;12.840;2022-08-14T00:01:58;19.00;99.90
25046;DHT22;13044;49.304;12.840;2022-08-14T00:04:27;19.00;99.90
25046;DHT22;13044;49.304;12.840;2022-08-14T00:07:05;18.90;99.90
25046;DHT22;13044;49.304;12.840;2022-08-14T00:09:34;18.80;99.90
25046;DHT22;13044;49.304;12.840;2022-08-14T00:12:22;18.70;99.90
25046;DHT22;13044;49.304;12.840;2022-08-14T00:15:14;18.70;99.90
25046;DHT22;13044;49.304;12.840;2022-08-14T00:18:04;18.80;99.90
25046;DHT22;13044;49.304;12.840;2022-08-14T00:20:35;18.90;99.90
25046;DHT22;13044;49.304;12.840;2022-08-14T00:23:10;18.90;99.90
25046;DHT22;13044;49.304;12.840;2022-08-14T00:25:46;18.90;99.90
25046;DHT22;13044;49.304;12.840;2022-08-14T00:28:33;18.90;99.90
25046;DHT22;13044;49.304;12.840;2022-08-14T00:31:03;18.90;99.90
25046;DHT22;13044;49.304;12.840;2022-08-14T00:33:35;18.90;99.90
25046;DHT22;13044;49.304;12.840;2022-08-14T00:36:22;18.90;99.90
25046;DHT22;13044;49.304;12.840;2022-08-14T00:39:12;18.90;99.90
25046;DHT22;13044;49.304;12.840;2022-08-14T00:41:44;18.90;99.90
25046;DHT22;13044;49.304;12.840;2022-08-14T00:44:13;19.00;99.90
25046;DHT22;13044;49.304;12.840;2022-08-14T00:46:47;18.90;99.90
25046;DHT22;13044;49.304;12.840;2022-08-14T00:49:16;18.90;99.90
25046;DHT22;13044;49.304;12.840;2022-08-14T00:51:46;18.90;99.90
25046;DHT22;13044;49.304;12.840;2022-08-14T00:54:14;18.90;99.90
25046;DHT22;13044;49.304;12.840;2022-08-14T00:56:52;18.80;99.90
25046;DHT22;13044;49.304;12.840;2022-08-14T00:59:22;18.80;99.90
25046;DHT22;13044;49.304;12.840;2022-08-14T01:01:52;18.80;99.90
25046;DHT22;13044;49.304;12.840;2022-08-14T01:04:22;18.90;99.90
25046;DHT22;13044;49.304;12.840;2022-08-14T01:07:10;18.90;99.90
25046;DHT22;13044;49.304;12.840;2022-08-14T01:09:40;18.90;99.90
25046;DHT22;13044;49.304;12.840;2022-08-14T01:12:07;18.90;99.90
25046;DHT22;13044;49.304;12.840;2022-08-14T01:14:36;18.80;99.90
25046;DHT22;13044;49.304;12.840;2022-08-14T01:17:03;18.80;99.90
25046;DHT22;13044;49.304;12.840;2022-08-14T01:19:34;18.70;99.90
25046;DHT22;13044;49.304;12.840;2022-08-14T01:22:20;18.70;99.90
25046;DHT22;13044;49.304;12.840;2022-08-14T01:24:52;18.60;99.90
25046;DHT22;13044;49.304;12.840;2022-08-14T01:27:21;18.60;99.90
25046;DHT22;13044;49.304;12.840;2022-08-14T01:29:55;18.60;99.90
25046;DHT22;13044;49.304;12.840;2022-08-14T01:32:31;18.60;99.90
25046;DHT22;13044;49.304;12.840;2022-08-14T01:35:03;18.60;99.90
25046;DHT22;13044;49.304;12.840;2022-08-14T01:37:53;18.60;99.90
25046;DHT22;13044;49.304;12.840;2022-08-14T01:40:27;18.50;99.90
25046;DHT22;13044;49.304;12.840;2022-08-14T01:43:13;18.60;99.90
25046;DHT22;13044;49.304;12.840;2022-08-14T01:45:47;18.60;99.90
25046;DHT22;13044;49.304;12.840;2022-08-14T01:48:31;18.60;99.90
25046;DHT22;13044;49.304;12.840;2022-08-14T01:51:04;18.50;99.90
25046;DHT22;13044;49.304;12.840;2022-08-14T01:53:47;18.40;99.90
25046;DHT22;13044;49.304;12.840;2022-08-14T01:56:24;18.30;99.90
25046;DHT22;13044;49.304;12.840;2022-08-14T01:59:07;18.30;99.90
25046;DHT22;13044;49.304;12.840;2022-08-14T02:01:45;18.30;99.90
25046;DHT22;13044;49.304;12.840;2022-08-14T02:04:29;18.20;99.90
25046;DHT22;13044;49.304;12.840;2022-08-14T02:07:19;18.20;99.90
25046;DHT22;13044;49.304;12.840;2022-08-14T02:10:07;18.20;99.90
25046;DHT22;13044;49.304;12.840;2022-08-14T02:12:41;18.10;99.90
25046;DHT22;13044;49.304;12.840;2022-08-14T02:15:08;18.00;99.90
25046;DHT22;13044;49.304;12.840;2022-08-14T02:17:36;18.00;99.90
25046;DHT22;13044;49.304;12.840;2022-08-14T02:20:04;17.90;99.90
25046;DHT22;13044;49.304;12.840;2022-08-14T02:22:34;17.90;99.90
25046;DHT22;13044;49.304;12.840;2022-08-14T02:25:13;17.90;99.90
25046;DHT22;13044;49.304;12.840;2022-08-14T02:27:42;17.90;99.90
25046;DHT22;13044;49.304;12.840;2022-08-14T02:30:31;17.80;99.90
25046;DHT22;13044;49.304;12.840;2022-08-14T02:32:59;17.80;99.90
25046;DHT22;13044;49.304;12.840;2022-08-14T02:35:27;17.80;99.90
25046;DHT22;13044;49.304;12.840;2022-08-14T02:37:58;17.80;99.90
25046;DHT22;13044;49.304;12.840;2022-08-14T02:40:26;17.80;99.90
25046;DHT22;13044;49.304;12.840;2022-08-14T02:43:00;17.80;99.90
25046;DHT22;13044;49.304;12.840;2022-08-14T02:45:32;17.80;99.90
25046;DHT22;13044;49.304;12.840;2022-08-14T02:48:11;17.80;99.90
25046;DHT22;13044;49.304;12.840;2022-08-14T02:51:04;17.70;99.90
25046;DHT22;13044;49.304;12.840;2022-08-14T02:53:35;17.70;99.90
25046;DHT22;13044;49.304;12.840;2022-08-14T02:56:09;17.60;99.90
25046;DHT22;13044;49.304;12.840;2022-08-14T03:03:06;17.60;99.90
25046;DHT22;13044;49.304;12.840;2022-08-14T03:05:34;17.60;99.90
25046;DHT22;13044;49.304;12.840;2022-08-14T03:08:08;17.60;99.90
25046;DHT22;13044;49.304;12.840;2022-08-14T03:10:42;17.60;99.90
25046;DHT22;13044;49.304;12.840;2022-08-14T03:13:17;17.60;99.90
25046;DHT22;13044;49.304;12.840;2022-08-14T03:15:50;17.60;99.90
25046;DHT22;13044;49.304;12.840;2022-08-14T03:18:25;17.60;99.90
25046;DHT22;13044;49.304;12.840;2022-08-14T03:21:04;17.50;99.90
25046;DHT22;13044;49.304;12.840;2022-08-14T03:23:34;17.60;99.90
25046;DHT22;13044;49.304;12.840;2022-08-14T03:26:09;17.60;99.90
25046;DHT22;13044;49.304;12.840;2022-08-14T03:28:47;17.70;99.90
25046;DHT22;13044;49.304;12.840;2022-08-14T03:31:18;17.60;99.90
25046;DHT22;13044;49.304;12.840;2022-08-14T03:33:53;17.60;99.90
25046;DHT22;13044;49.304;12.840;2022-08-14T03:36:22;17.60;99.90
25046;DHT22;13044;49.304;12.840;2022-08-14T03:39:10;17.60;99.90
25046;DHT22;13044;49.304;12.840;2022-08-14T03:41:51;17.60;99.90
25046;DHT22;13044;49.304;12.840;2022-08-14T03:44:20;17.60;99.90
25046;DHT22;13044;49.304;12.840;2022-08-14T03:47:08;17.60;99.90
25046;DHT22;13044;49.304;12.840;2022-08-14T03:49:38;17.60;99.90
25046;DHT22;13044;49.304;12.840;2022-08-14T03:52:08;17.60;99.90
25046;DHT22;13044;49.304;12.840;2022-08-14T03:54:56;17.60;99.90
25046;DHT22;13044;49.304;12.840;2022-08-14T03:57:24;17.60;99.90
25046;DHT22;13044;49.304;12.840;2022-08-14T03:59:52;17.60;99.90
25046;DHT22;13044;49.304;12.840;2022-08-14T04:02:19;17.60;99.90
25046;DHT22;13044;49.304;12.840;2022-08-14T04:05:07;17.60;99.90
25046;DHT22;13044;49.304;12.840;2022-08-14T04:07:39;17.60;99.90
25046;DHT22;13044;49.304;12.840;2022-08-14T04:10:16;17.60;99.90
25046;DHT22;13044;49.304;12.840;2022-08-14T04:12:59;17.70;99.90
25046;DHT22;13044;49.304;12.840;2022-08-14T04:15:30;17.80;99.90
25046;DHT22;13044;49.304;12.840;2022-08-14T04:18:18;17.80;99.90
25046;DHT22;13044;49.304;12.840;2022-08-14T04:20:46;17.80;99.90
25046;DHT22;13044;49.304;12.840;2022-08-14T04:23:20;17.80;99.90
25046;DHT22;13044;49.304;12.840;2022-08-14T04:25:49;17.90;99.90
25046;DHT22;13044;49.304;12.840;2022-08-14T04:28:20;17.90;99.90
25046;DHT22;13044;49.304;12.840;2022-08-14T04:31:07;18.00;99.90
25046;DHT22;13044;49.304;12.840;2022-08-14T04:33:36;18.00;99.90
25046;DHT22;13044;49.304;12.840;2022-08-14T04:36:05;18.00;99.90
25046;DHT22;13044;49.304;12.840;2022-08-14T04:38:34;17.90;99.90
25046;DHT22;13044;49.304;12.840;2022-08-14T04:41:22;18.00;99.90
25046;DHT22;13044;49.304;12.840;2022-08-14T04:44:19;18.00;99.90
25046;DHT22;13044;49.304;12.840;2022-08-14T04:47:02;18.00;99.90
25046;DHT22;13044;49.304;12.840;2022-08-14T04:49:49;18.00;99.90
25046;DHT22;13044;49.304;12.840;2022-08-14T04:52:23;18.00;99.90
25046;DHT22;13044;49.304;12.840;2022-08-14T04:54:51;18.00;99.90
25046;DHT22;13044;49.304;12.840;2022-08-14T04:57:20;18.00;99.90
25046;DHT22;13044;49.304;12.840;2022-08-14T04:59:48;18.00;99.90
25046;DHT22;13044;49.304;12.840;2022-08-14T05:02:16;18.10;99.90
25046;DHT22;13044;49.304;12.840;2022-08-14T05:04:43;18.10;99.90
25046;DHT22;13044;49.304;12.840;2022-08-14T05:07:23;18.10;99.90
25046;DHT22;13044;49.304;12.840;2022-08-14T05:10:10;18.10;99.90
25046;DHT22;13044;49.304;12.840;2022-08-14T05:12:47;18.10;99.90
25046;DHT22;13044;49.304;12.840;2022-08-14T05:15:36;18.00;99.90
25046;DHT22;13044;49.304;12.840;2022-08-14T05:18:10;18.10;99.90
25046;DHT22;13044;49.304;12.840;2022-08-14T05:21:00;18.10;99.90
25046;DHT22;13044;49.304;12.840;2022-08-14T05:23:48;18.20;99.90
25046;DHT22;13044;49.304;12.840;2022-08-14T05:26:19;18.20;99.90
25046;DHT22;13044;49.304;12.840;2022-08-14T05:28:47;18.20;99.90
25046;DHT22;13044;49.304;12.840;2022-08-14T05:31:16;18.20;99.90
25046;DHT22;13044;49.304;12.840;2022-08-14T05:33:47;18.30;99.90
25046;DHT22;13044;49.304;12.840;2022-08-14T05:36:23;18.30;99.90
25046;DHT22;13044;49.304;12.840;2022-08-14T05:38:52;18.30;99.90
25046;DHT22;13044;49.304;12.840;2022-08-14T05:41:20;18.30;99.90
25046;DHT22;13044;49.304;12.840;2022-08-14T05:43:48;18.40;99.90
25046;DHT22;13044;49.304;12.840;2022-08-14T05:46:18;18.50;99.90
25046;DHT22;13044;49.304;12.840;2022-08-14T05:48:55;18.60;99.90
25046;DHT22;13044;49.304;12.840;2022-08-14T05:51:23;18.70;99.90
25046;DHT22;13044;49.304;12.840;2022-08-14T05:53:51;18.70;99.90
25046;DHT22;13044;49.304;12.840;2022-08-14T05:56:35;18.70;99.90
25046;DHT22;13044;49.304;12.840;2022-08-14T05:59:03;18.90;99.90
25046;DHT22;13044;49.304;12.840;2022-08-14T06:01:31;18.90;99.90
25046;DHT22;13044;49.304;12.840;2022-08-14T06:03:59;19.00;99.90
25046;DHT22;13044;49.304;12.840;2022-08-14T06:06:30;19.00;99.90
25046;DHT22;13044;49.304;12.840;2022-08-14T06:09:04;19.10;99.90
25046;DHT22;13044;49.304;12.840;2022-08-14T06:11:35;19.10;99.90
25046;DHT22;13044;49.304;12.840;2022-08-14T06:14:03;19.30;99.90
25046;DHT22;13044;49.304;12.840;2022-08-14T06:16:47;19.40;99.90
25046;DHT22;13044;49.304;12.840;2022-08-14T06:19:14;19.50;99.90
25046;DHT22;13044;49.304;12.840;2022-08-14T06:21:44;19.60;99.90
25046;DHT22;13044;49.304;12.840;2022-08-14T06:24:12;19.70;99.90
25046;DHT22;13044;49.304;12.840;2022-08-14T06:26:45;19.80;99.90
25046;DHT22;13044;49.304;12.840;2022-08-14T06:29:22;19.90;99.90
25046;DHT22;13044;49.304;12.840;2022-08-14T06:31:50;20.00;99.90
25046;DHT22;13044;49.304;12.840;2022-08-14T06:34:26;20.20;99.90
25046;DHT22;13044;49.304;12.840;2022-08-14T06:37:13;20.30;99.90
25046;DHT22;13044;49.304;12.840;2022-08-14T06:39:42;20.30;99.90
25046;DHT22;13044;49.304;12.840;2022-08-14T06:42:10;20.40;99.90
25046;DHT22;13044;49.304;12.840;2022-08-14T06:44:58;20.60;99.90
25046;DHT22;13044;49.304;12.840;2022-08-14T06:47:28;20.70;99.90
25046;DHT22;13044;49.304;12.840;2022-08-14T06:49:55;20.70;99.90
25046;DHT22;13044;49.304;12.840;2022-08-14T06:52:23;20.70;99.90
25046;DHT22;13044;49.304;12.840;2022-08-14T06:54:50;20.90;99.90
25046;DHT22;13044;49.304;12.840;2022-08-14T06:57:18;21.00;99.90
25046;DHT22;13044;49.304;12.840;2022-08-14T06:59:47;21.00;99.90
25046;DHT22;13044;49.304;12.840;2022-08-14T07:02:15;21.10;99.90
25046;DHT22;13044;49.304;12.840;2022-08-14T07:05:09;21.20;99.90
25046;DHT22;13044;49.304;12.840;2022-08-14T07:07:54;21.30;99.90
25046;DHT22;13044;49.304;12.840;2022-08-14T07:10:24;21.30;99.90
25046;DHT22;13044;49.304;12.840;2022-08-14T07:12:51;21.30;99.90
25046;DHT22;13044;49.304;12.840;2022-08-14T07:15:29;21.40;99.90
25046;DHT22;13044;49.304;12.840;2022-08-14T07:18:02;21.50;99.90
25046;DHT22;13044;49.304;12.840;2022-08-14T07:20:34;21.60;99.90
25046;DHT22;13044;49.304;12.840;2022-08-14T07:23:03;21.60;99.90
25046;DHT22;13044;49.304;12.840;2022-08-14T07:25:38;21.60;99.90
25046;DHT22;13044;49.304;12.840;2022-08-14T07:28:17;21.70;99.90
25046;DHT22;13044;49.304;12.840;2022-08-14T07:31:10;21.80;99.90
25046;DHT22;13044;49.304;12.840;2022-08-14T07:33:40;21.90;99.90
25046;DHT22;13044;49.304;12.840;2022-08-14T07:36:17;21.90;99.90
25046;DHT22;13044;49.304;12.840;2022-08-14T07:38:57;21.80;99.90
25046;DHT22;13044;49.304;12.840;2022-08-14T07:41:25;21.80;99.90
25046;DHT22;13044;49.304;12.840;2022-08-14T07:44:00;21.90;99.90
25046;DHT22;13044;49.304;12.840;2022-08-14T07:46:47;22.10;99.90
25046;DHT22;13044;49.304;12.840;2022-08-14T07:49:15;22.10;99.90
25046;DHT22;13044;49.304;12.840;2022-08-14T07:51:44;22.30;99.90
25046;DHT22;13044;49.304;12.840;2022-08-14T07:54:15;22.40;99.90
25046;DHT22;13044;49.304;12.840;2022-08-14T07:56:58;22.30;99.90
25046;DHT22;13044;49.304;12.840;2022-08-14T07:59:38;22.30;99.90
25046;DHT22;13044;49.304;12.840;2022-08-14T08:02:11;22.30;99.90
25046;DHT22;13044;49.304;12.840;2022-08-14T08:04:47;22.50;99.90
25046;DHT22;13044;49.304;12.840;2022-08-14T08:07:19;22.60;99.90
25046;DHT22;13044;49.304;12.840;2022-08-14T08:09:55;22.70;99.90
25046;DHT22;13044;49.304;12.840;2022-08-14T08:12:24;22.80;99.90
25046;DHT22;13044;49.304;12.840;2022-08-14T08:15:04;23.00;99.90
25046;DHT22;13044;49.304;12.840;2022-08-14T08:17:36;23.10;99.90
25046;DHT22;13044;49.304;12.840;2022-08-14T08:20:22;23.10;99.90
25046;DHT22;13044;49.304;12.840;2022-08-14T08:22:54;23.20;99.90
25046;DHT22;13044;49.304;12.840;2022-08-14T08:25:35;23.30;99.90
25046;DHT22;13044;49.304;12.840;2022-08-14T08:28:14;23.50;99.90
25046;DHT22;13044;49.304;12.840;2022-08-14T08:31:03;23.50;99.90
25046;DHT22;13044;49.304;12.840;2022-08-14T08:33:34;23.60;99.90
25046;DHT22;13044;49.304;12.840;2022-08-14T08:36:08;23.70;99.90
25046;DHT22;13044;49.304;12.840;2022-08-14T08:38:44;23.70;99.90
25046;DHT22;13044;49.304;12.840;2022-08-14T08:41:52;23.80;99.90
25046;DHT22;13044;49.304;12.840;2022-08-14T08:44:20;23.80;99.90
25046;DHT22;13044;49.304;12.840;2022-08-14T08:47:00;24.00;99.90
25046;DHT22;13044;49.304;12.840;2022-08-14T08:49:37;24.10;99.90
25046;DHT22;13044;49.304;12.840;2022-08-14T08:52:15;24.20;99.90
25046;DHT22;13044;49.304;12.840;2022-08-14T08:54:56;24.50;99.90
25046;DHT22;13044;49.304;12.840;2022-08-14T08:57:24;24.50;99.90
25046;DHT22;13044;49.304;12.840;2022-08-14T08:59:51;24.50;99.90
25046;DHT22;13044;49.304;12.840;2022-08-14T09:02:20;24.60;99.90
25046;DHT22;13044;49.304;12.840;2022-08-14T09:05:01;24.60;99.90
25046;DHT22;13044;49.304;12.840;2022-08-14T09:07:30;24.60;99.90
25046;DHT22;13044;49.304;12.840;2022-08-14T09:09:57;24.60;99.90
25046;DHT22;13044;49.304;12.840;2022-08-14T09:12:30;24.70;99.90
25046;DHT22;13044;49.304;12.840;2022-08-14T09:15:00;24.80;99.90
25046;DHT22;13044;49.304;12.840;2022-08-14T09:17:28;24.90;99.90
25046;DHT22;13044;49.304;12.840;2022-08-14T09:19:56;25.00;99.90
25046;DHT22;13044;49.304;12.840;2022-08-14T09:22:29;24.90;99.90
25046;DHT22;13044;49.304;12.840;2022-08-14T09:25:04;24.80;99.90
25046;DHT22;13044;49.304;12.840;2022-08-14T09:27:34;25.00;99.90
25046;DHT22;13044;49.304;12.840;2022-08-14T09:30:05;25.00;99.90
25046;DHT22;13044;49.304;12.840;2022-08-14T09:38:32;25.10;99.90
25046;DHT22;13044;49.304;12.840;2022-08-14T09:47:16;25.20;99.90
25046;DHT22;13044;49.304;12.840;2022-08-14T09:49:44;25.40;99.90
25046;DHT22;13044;49.304;12.840;2022-08-14T09:52:19;25.40;99.90
25046;DHT22;13044;49.304;12.840;2022-08-14T09:55:00;25.50;99.60
25046;DHT22;13044;49.304;12.840;2022-08-14T09:57:29;25.40;99.80
25046;DHT22;13044;49.304;12.840;2022-08-14T09:59:57;25.50;99.50
25046;DHT22;13044;49.304;12.840;2022-08-14T10:02:27;25.60;99.30
25046;DHT22;13044;49.304;12.840;2022-08-14T10:07:36;25.90;99.30
25046;DHT22;13044;49.304;12.840;2022-08-14T10:10:45;26.10;98.70
25046;DHT22;13044;49.304;12.840;2022-08-14T10:13:27;26.30;98.20
25046;DHT22;13044;49.304;12.840;2022-08-14T10:16:08;26.30;98.40
25046;DHT22;13044;49.304;12.840;2022-08-14T10:19:08;26.30;98.20
25046;DHT22;13044;49.304;12.840;2022-08-14T10:21:37;26.40;97.70
25046;DHT22;13044;49.304;12.840;2022-08-14T10:24:28;26.30;97.80
25046;DHT22;13044;49.304;12.840;2022-08-14T10:27:03;26.30;97.30
25046;DHT22;13044;49.304;12.840;2022-08-14T10:29:36;26.30;96.30
25046;DHT22;13044;49.304;12.840;2022-08-14T10:32:05;26.30;96.90
25046;DHT22;13044;49.304;12.840;2022-08-14T10:34:45;26.30;96.60
25046;DHT22;13044;49.304;12.840;2022-08-14T10:37:18;26.20;96.70
25046;DHT22;13044;49.304;12.840;2022-08-14T10:40:00;26.30;96.30
25046;DHT22;13044;49.304;12.840;2022-08-14T10:42:38;26.30;96.10
25046;DHT22;13044;49.304;12.840;2022-08-14T10:45:24;26.30;96.00
25046;DHT22;13044;49.304;12.840;2022-08-14T10:48:00;26.40;96.40
25046;DHT22;13044;49.304;12.840;2022-08-14T10:50:47;26.40;96.10
25046;DHT22;13044;49.304;12.840;2022-08-14T10:53:31;26.40;96.20
25046;DHT22;13044;49.304;12.840;2022-08-14T10:56:00;26.70;95.60
25046;DHT22;13044;49.304;12.840;2022-08-14T10:58:30;26.90;95.70
25046;DHT22;13044;49.304;12.840;2022-08-14T11:01:00;27.00;95.30
25046;DHT22;13044;49.304;12.840;2022-08-14T11:03:39;27.20;94.90
25046;DHT22;13044;49.304;12.840;2022-08-14T11:06:23;27.30;95.10
25046;DHT22;13044;49.304;12.840;2022-08-14T11:08:53;27.40;95.10
25046;DHT22;13044;49.304;12.840;2022-08-14T11:11:21;27.40;94.40
25046;DHT22;13044;49.304;12.840;2022-08-14T11:13:58;27.40;94.80
25046;DHT22;13044;49.304;12.840;2022-08-14T11:16:24;27.40;94.00
25046;DHT22;13044;49.304;12.840;2022-08-14T11:18:55;27.30;93.30
25046;DHT22;13044;49.304;12.840;2022-08-14T11:21:25;27.10;93.10
25046;DHT22;13044;49.304;12.840;2022-08-14T11:24:00;27.00;93.00
25046;DHT22;13044;49.304;12.840;2022-08-14T11:26:47;26.90;93.90
25046;DHT22;13044;49.304;12.840;2022-08-14T11:29:20;27.00;93.50
25046;DHT22;13044;49.304;12.840;2022-08-14T11:31:54;27.10;92.40
25046;DHT22;13044;49.304;12.840;2022-08-14T11:34:22;27.20;92.20
25046;DHT22;13044;49.304;12.840;2022-08-14T11:37:08;27.30;92.40
25046;DHT22;13044;49.304;12.840;2022-08-14T11:39:55;27.30;93.50
25046;DHT22;13044;49.304;12.840;2022-08-14T11:42:25;27.50;92.60
25046;DHT22;13044;49.304;12.840;2022-08-14T11:45:14;27.70;92.10
25046;DHT22;13044;49.304;12.840;2022-08-14T11:47:44;28.00;91.90
25046;DHT22;13044;49.304;12.840;2022-08-14T11:50:33;28.10;91.40
25046;DHT22;13044;49.304;12.840;2022-08-14T11:53:16;28.10;91.40
25046;DHT22;13044;49.304;12.840;2022-08-14T11:55:54;28.20;91.10
25046;DHT22;13044;49.304;12.840;2022-08-14T11:58:29;28.20;91.80
25046;DHT22;13044;49.304;12.840;2022-08-14T12:01:05;28.30;91.30
25046;DHT22;13044;49.304;12.840;2022-08-14T12:03:46;28.20;91.30
25046;DHT22;13044;49.304;12.840;2022-08-14T12:06:23;28.10;91.20
25046;DHT22;13044;49.304;12.840;2022-08-14T12:09:04;28.00;91.30
25046;DHT22;13044;49.304;12.840;2022-08-14T12:11:38;27.90;91.60
25046;DHT22;13044;49.304;12.840;2022-08-14T12:14:10;27.80;92.00
25046;DHT22;13044;49.304;12.840;2022-08-14T12:17:00;27.80;92.20
25046;DHT22;13044;49.304;12.840;2022-08-14T12:20:00;27.70;92.60
25046;DHT22;13044;49.304;12.840;2022-08-14T12:25:28;27.70;91.80
25046;DHT22;13044;49.304;12.840;2022-08-14T12:27:56;27.70;92.40
25046;DHT22;13044;49.304;12.840;2022-08-14T12:30:39;27.90;92.30
25046;DHT22;13044;49.304;12.840;2022-08-14T12:36:01;28.20;90.40
25046;DHT22;13044;49.304;12.840;2022-08-14T12:41:20;28.30;90.30
25046;DHT22;13044;49.304;12.840;2022-08-14T12:43:54;28.40;90.50
25046;DHT22;13044;49.304;12.840;2022-08-14T12:46:32;28.30;90.60
25046;DHT22;13044;49.304;12.840;2022-08-14T12:49:11;28.30;90.40
25046;DHT22;13044;49.304;12.840;2022-08-14T12:51:43;28.10;90.70
25046;DHT22;13044;49.304;12.840;2022-08-14T12:54:21;28.00;91.00
25046;DHT22;13044;49.304;12.840;2022-08-14T12:57:10;28.00;91.40
25046;DHT22;13044;49.304;12.840;2022-08-14T12:59:46;27.90;91.20
25046;DHT22;13044;49.304;12.840;2022-08-14T13:02:22;27.90;91.00
25046;DHT22;13044;49.304;12.840;2022-08-14T13:04:53;27.80;91.00
25046;DHT22;13044;49.304;12.840;2022-08-14T13:07:21;27.80;91.00
25046;DHT22;13044;49.304;12.840;2022-08-14T13:09:54;27.90;91.10
25046;DHT22;13044;49.304;12.840;2022-08-14T13:12:23;27.90;91.30
25046;DHT22;13044;49.304;12.840;2022-08-14T13:15:04;27.90;91.10
25046;DHT22;13044;49.304;12.840;2022-08-14T13:17:43;28.00;90.80
25046;DHT22;13044;49.304;12.840;2022-08-14T13:20:20;27.90;91.10
25046;DHT22;13044;49.304;12.840;2022-08-14T13:22:53;28.00;90.90
25046;DHT22;13044;49.304;12.840;2022-08-14T13:25:26;27.90;91.10
25046;DHT22;13044;49.304;12.840;2022-08-14T13:27:55;27.90;91.10
25046;DHT22;13044;49.304;12.840;2022-08-14T13:30:25;27.90;91.00
25046;DHT22;13044;49.304;12.840;2022-08-14T13:32:54;27.90;90.60
25046;DHT22;13044;49.304;12.840;2022-08-14T13:35:25;27.90;90.70
25046;DHT22;13044;49.304;12.840;2022-08-14T13:37:52;27.90;90.60
25046;DHT22;13044;49.304;12.840;2022-08-14T13:40:21;27.80;91.10
25046;DHT22;13044;49.304;12.840;2022-08-14T13:42:53;27.90;91.30
25046;DHT22;13044;49.304;12.840;2022-08-14T13:45:24;28.00;91.00
25046;DHT22;13044;49.304;12.840;2022-08-14T13:48:13;28.10;90.30
25046;DHT22;13044;49.304;12.840;2022-08-14T13:50:59;28.10;90.30
25046;DHT22;13044;49.304;12.840;2022-08-14T13:53:32;28.10;89.80
25046;DHT22;13044;49.304;12.840;2022-08-14T13:56:04;28.10;89.50
25046;DHT22;13044;49.304;12.840;2022-08-14T13:58:33;28.10;89.10
25046;DHT22;13044;49.304;12.840;2022-08-14T14:01:01;28.10;89.40
25046;DHT22;13044;49.304;12.840;2022-08-14T14:03:34;28.10;90.00
25046;DHT22;13044;49.304;12.840;2022-08-14T14:06:01;28.10;90.10
25046;DHT22;13044;49.304;12.840;2022-08-14T14:08:34;28.20;89.80
25046;DHT22;13044;49.304;12.840;2022-08-14T14:11:14;28.20;89.50
25046;DHT22;13044;49.304;12.840;2022-08-14T14:13:45;28.30;88.00
25046;DHT22;13044;49.304;12.840;2022-08-14T14:16:15;28.30;87.30
25046;DHT22;13044;49.304;12.840;2022-08-14T14:18:56;28.30;86.40
25046;DHT22;13044;49.304;12.840;2022-08-14T14:21:36;28.50;86.20
25046;DHT22;13044;49.304;12.840;2022-08-14T14:24:07;28.40;86.00
25046;DHT22;13044;49.304;12.840;2022-08-14T14:26:48;28.50;86.20
25046;DHT22;13044;49.304;12.840;2022-08-14T14:29:18;28.70;85.90
25046;DHT22;13044;49.304;12.840;2022-08-14T14:31:52;28.70;85.70
25046;DHT22;13044;49.304;12.840;2022-08-14T14:34:23;28.70;85.30
25046;DHT22;13044;49.304;12.840;2022-08-14T14:36:57;28.80;84.70
25046;DHT22;13044;49.304;12.840;2022-08-14T14:39:32;28.80;84.30
25046;DHT22;13044;49.304;12.840;2022-08-14T14:42:04;28.80;85.10
25046;DHT22;13044;49.304;12.840;2022-08-14T14:44:38;28.80;84.70
25046;DHT22;13044;49.304;12.840;2022-08-14T14:47:10;28.80;84.40
25046;DHT22;13044;49.304;12.840;2022-08-14T14:49:38;28.70;85.00
25046;DHT22;13044;49.304;12.840;2022-08-14T14:52:20;28.60;85.20
25046;DHT22;13044;49.304;12.840;2022-08-14T14:54:57;28.40;84.10
25046;DHT22;13044;49.304;12.840;2022-08-14T14:57:27;28.20;86.10
25046;DHT22;13044;49.304;12.840;2022-08-14T15:00:04;28.10;86.00
25046;DHT22;13044;49.304;12.840;2022-08-14T15:02:41;28.00;86.00
25046;DHT22;13044;49.304;12.840;2022-08-14T15:05:12;28.00;86.00
25046;DHT22;13044;49.304;12.840;2022-08-14T15:07:42;28.00;85.80
25046;DHT22;13044;49.304;12.840;2022-08-14T15:10:14;28.00;85.40
25046;DHT22;13044;49.304;12.840;2022-08-14T15:12:56;28.00;86.00
25046;DHT22;13044;49.304;12.840;2022-08-14T15:15:33;28.00;86.20
25046;DHT22;13044;49.304;12.840;2022-08-14T15:18:07;28.10;86.00
25046;DHT22;13044;49.304;12.840;2022-08-14T15:20:54;28.10;86.40
25046;DHT22;13044;49.304;12.840;2022-08-14T15:23:24;28.10;86.50
25046;DHT22;13044;49.304;12.840;2022-08-14T15:26:11;28.10;85.40
25046;DHT22;13044;49.304;12.840;2022-08-14T15:29:02;28.10;86.00
25046;DHT22;13044;49.304;12.840;2022-08-14T15:31:33;28.00;86.20
25046;DHT22;13044;49.304;12.840;2022-08-14T15:34:04;28.00;86.70
25046;DHT22;13044;49.304;12.840;2022-08-14T15:36:57;28.00;86.70
25046;DHT22;13044;49.304;12.840;2022-08-14T15:39:24;28.10;86.40
25046;DHT22;13044;49.304;12.840;2022-08-14T15:41:55;27.90;87.00
25046;DHT22;13044;49.304;12.840;2022-08-14T15:44:23;28.00;87.10
25046;DHT22;13044;49.304;12.840;2022-08-14T15:46:59;28.10;86.80
25046;DHT22;13044;49.304;12.840;2022-08-14T15:49:27;28.00;87.50
25046;DHT22;13044;49.304;12.840;2022-08-14T15:52:00;28.10;87.50
25046;DHT22;13044;49.304;12.840;2022-08-14T15:54:29;28.10;87.20
25046;DHT22;13044;49.304;12.840;2022-08-14T15:57:06;28.00;87.50
25046;DHT22;13044;49.304;12.840;2022-08-14T15:59:36;28.10;87.50
25046;DHT22;13044;49.304;12.840;2022-08-14T16:02:24;28.00;87.30
25046;DHT22;13044;49.304;12.840;2022-08-14T16:04:53;28.20;86.00
25046;DHT22;13044;49.304;12.840;2022-08-14T16:07:21;28.20;85.40
25046;DHT22;13044;49.304;12.840;2022-08-14T16:09:53;28.20;84.90
25046;DHT22;13044;49.304;12.840;2022-08-14T16:12:40;28.10;85.60
25046;DHT22;13044;49.304;12.840;2022-08-14T16:15:13;27.90;85.70
25046;DHT22;13044;49.304;12.840;2022-08-14T16:17:43;27.90;86.50
25046;DHT22;13044;49.304;12.840;2022-08-14T16:20:11;27.80;87.30
25046;DHT22;13044;49.304;12.840;2022-08-14T16:23:00;27.80;85.60
25046;DHT22;13044;49.304;12.840;2022-08-14T16:25:41;27.90;86.10
25046;DHT22;13044;49.304;12.840;2022-08-14T16:28:09;28.10;86.00
25046;DHT22;13044;49.304;12.840;2022-08-14T16:30:53;28.10;86.00
25046;DHT22;13044;49.304;12.840;2022-08-14T16:33:21;28.00;86.40